Time;durP1;ratioP1;P1;durP2;ratioP2;P2;SDS_P1;SDS_P2;PMS_P1;PMS_P2;Temp;Humidity;BMP_temperature;BMP_pressure;BME280_temperature;BME280_humidity;BME280_pressure;Samples;Min_cycle;Max_cycle;Signal;HPM_P1;HPM_P2
2021/07/07 00:00:31;;;;;;;2.95;1.23;;;17.50;74.00;;;;;;5078461;28;20024;-72
2021/07/07 00:02:57;;;;;;;1.17;0.77;;;17.60;74.00;;;;;;5078288;28;20544;-73
2021/07/07 00:05:23;;;;;;;2.38;1.08;;;17.60;74.00;;;;;;5078107;28;20111;-73
2021/07/07 00:07:48;;;;;;;2.17;0.80;;;17.60;73.90;;;;;;5078068;28;20408;-72
2021/07/07 00:10:17;;;;;;;2.05;0.95;;;17.60;73.90;;;;;;5096106;28;20024;-72
2021/07/07 00:12:43;;;;;;;4.65;0.95;;;17.60;73.90;;;;;;5078109;28;20024;-74
2021/07/07 00:15:15;;;;;;;2.58;0.90;;;17.60;74.00;;;;;;5096217;28;20028;-73
2021/07/07 00:17:41;;;;;;;2.53;0.93;;;17.60;74.00;;;;;;5077950;28;20066;-73
2021/07/07 00:20:10;;;;;;;2.75;0.90;;;17.50;74.00;;;;;;5096128;28;20102;-72
2021/07/07 00:22:36;;;;;;;1.17;0.80;;;17.50;74.10;;;;;;5096031;28;20107;-72
2021/07/07 00:25:03;;;;;;;3.75;1.30;;;17.50;74.20;;;;;;5077792;28;20059;-72
2021/07/07 00:27:28;;;;;;;2.08;0.98;;;17.50;74.30;;;;;;5096067;28;20400;-72
2021/07/07 00:29:55;;;;;;;1.85;1.10;;;17.50;74.40;;;;;;5095818;28;20039;-72
2021/07/07 00:32:21;;;;;;;2.25;1.15;;;17.50;74.40;;;;;;5077754;28;20024;-72
2021/07/07 00:34:46;;;;;;;3.45;1.38;;;17.40;74.40;;;;;;5095814;28;20024;-72
2021/07/07 00:37:13;;;;;;;0.80;0.80;;;17.40;74.50;;;;;;5077606;28;20487;-72
2021/07/07 00:39:39;;;;;;;1.98;1.20;;;17.30;74.50;;;;;;5095809;28;20086;-73
2021/07/07 00:42:05;;;;;;;2.45;1.10;;;17.30;74.60;;;;;;5077527;28;20486;-73
2021/07/07 00:44:31;;;;;;;3.70;1.10;;;17.20;74.70;;;;;;5077449;28;20427;-73
2021/07/07 00:46:56;;;;;;;1.88;1.10;;;17.20;74.80;;;;;;5077523;28;20053;-73
2021/07/07 00:49:22;;;;;;;1.27;0.93;;;17.10;74.80;;;;;;5095050;28;20036;-72
2021/07/07 00:51:48;;;;;;;2.97;1.10;;;17.10;75.00;;;;;;5095638;28;20017;-74
2021/07/07 00:54:15;;;;;;;2.08;1.20;;;17.00;75.10;;;;;;5077391;28;20035;-72
2021/07/07 00:56:43;;;;;;;2.28;1.10;;;17.00;75.20;;;;;;5077653;28;20038;-73
2021/07/07 00:59:09;;;;;;;3.15;1.17;;;16.90;75.30;;;;;;5095397;28;20047;-72
2021/07/07 01:01:35;;;;;;;1.98;1.10;;;16.90;75.40;;;;;;5077102;28;20020;-72
2021/07/07 01:04:03;;;;;;;1.73;1.08;;;16.80;75.50;;;;;;5077082;28;20506;-73
2021/07/07 01:06:29;;;;;;;2.47;1.10;;;16.80;75.60;;;;;;5077094;28;20460;-73
2021/07/07 01:08:54;;;;;;;2.47;1.20;;;16.80;75.70;;;;;;5077044;28;20058;-72
2021/07/07 01:11:20;;;;;;;1.77;1.20;;;16.70;75.70;;;;;;5095075;28;20067;-73
2021/07/07 01:13:46;;;;;;;2.47;1.10;;;16.70;75.90;;;;;;5095055;28;20119;-73
2021/07/07 01:16:11;;;;;;;1.88;1.20;;;16.60;75.90;;;;;;5076817;28;20017;-73
2021/07/07 01:18:37;;;;;;;1.75;1.00;;;16.60;76.00;;;;;;5094785;28;20492;-72
2021/07/07 01:21:04;;;;;;;1.23;1.00;;;16.50;76.10;;;;;;5094908;28;20488;-72
2021/07/07 01:23:29;;;;;;;1.65;1.00;;;16.50;76.20;;;;;;5076647;28;20028;-73
2021/07/07 01:25:56;;;;;;;2.85;1.10;;;16.50;76.30;;;;;;5094850;28;20088;-74
2021/07/07 01:28:21;;;;;;;1.73;1.20;;;16.50;76.40;;;;;;5094841;28;20035;-73
2021/07/07 01:30:47;;;;;;;3.47;1.25;;;16.40;76.40;;;;;;5094691;28;20024;-72
2021/07/07 01:33:13;;;;;;;1.60;1.00;;;16.40;76.60;;;;;;5094764;28;20035;-72
2021/07/07 01:35:39;;;;;;;2.95;1.30;;;16.40;76.70;;;;;;5076777;28;20024;-72
2021/07/07 01:38:05;;;;;;;1.63;0.93;;;16.30;76.70;;;;;;5076505;28;20027;-73
2021/07/07 01:40:31;;;;;;;2.00;1.10;;;16.30;76.90;;;;;;5076373;28;20032;-72
2021/07/07 01:42:57;;;;;;;1.48;1.20;;;16.20;76.90;;;;;;5094531;28;20062;-72
2021/07/07 01:45:24;;;;;;;3.53;1.40;;;16.20;77.00;;;;;;5094389;28;20027;-73
2021/07/07 01:47:51;;;;;;;2.25;0.95;;;16.20;77.20;;;;;;5094554;28;20047;-72
2021/07/07 01:50:17;;;;;;;2.67;1.10;;;16.20;77.20;;;;;;5076018;28;20024;-72
2021/07/07 01:52:44;;;;;;;1.65;1.00;;;16.10;77.30;;;;;;5094264;28;20400;-72
2021/07/07 01:55:12;;;;;;;2.20;1.30;;;16.10;77.40;;;;;;5076147;28;20031;-72
2021/07/07 01:57:49;;;;;;;2.70;1.20;;;16.10;77.50;;;;;;5076074;28;20059;-72
2021/07/07 02:00:22;;;;;;;2.70;1.67;;;16.10;77.60;;;;;;5076182;28;20024;-73
2021/07/07 02:02:49;;;;;;;2.05;1.20;;;16.00;77.60;;;;;;5075005;28;20122;-72
2021/07/07 02:05:16;;;;;;;1.83;1.15;;;16.00;77.70;;;;;;5076410;28;20092;-72
2021/07/07 02:07:42;;;;;;;2.55;1.10;;;16.00;77.80;;;;;;5075742;28;20125;-72
2021/07/07 02:10:11;;;;;;;3.45;1.30;;;15.90;77.90;;;;;;5075793;28;20039;-73
2021/07/07 02:12:37;;;;;;;1.83;1.20;;;15.90;77.90;;;;;;5076112;28;20024;-73
2021/07/07 02:15:10;;;;;;;2.15;1.20;;;15.90;78.00;;;;;;5093905;28;20030;-73
2021/07/07 02:17:36;;;;;;;2.85;1.40;;;15.80;78.10;;;;;;5075717;28;20040;-73
2021/07/07 02:20:04;;;;;;;1.98;1.23;;;15.80;78.10;;;;;;5093856;28;20027;-73
2021/07/07 02:22:29;;;;;;;3.17;1.30;;;15.80;78.20;;;;;;5093904;28;20028;-72
2021/07/07 02:24:55;;;;;;;2.25;1.20;;;15.80;78.30;;;;;;5075556;28;20038;-72
2021/07/07 02:27:21;;;;;;;1.58;1.30;;;15.80;78.40;;;;;;5093764;28;20032;-73
2021/07/07 02:29:46;;;;;;;1.50;1.20;;;15.70;78.40;;;;;;5075412;28;20491;-73
2021/07/07 02:32:12;;;;;;;2.78;1.50;;;15.70;78.40;;;;;;5093617;28;20028;-72
2021/07/07 02:34:37;;;;;;;2.33;1.48;;;15.70;78.50;;;;;;5075723;28;20024;-72
2021/07/07 02:37:03;;;;;;;2.45;1.50;;;15.70;78.50;;;;;;5093505;28;20031;-72
2021/07/07 02:39:29;;;;;;;1.80;1.30;;;15.70;78.60;;;;;;5093422;28;20032;-74
2021/07/07 02:41:54;;;;;;;3.13;1.40;;;15.70;78.60;;;;;;5075301;28;20028;-72
2021/07/07 02:44:20;;;;;;;4.30;1.50;;;15.70;78.60;;;;;;5093474;28;20028;-72
2021/07/07 02:46:45;;;;;;;3.55;1.45;;;15.70;78.70;;;;;;5093502;28;20499;-72
2021/07/07 02:49:11;;;;;;;1.80;1.58;;;15.70;78.80;;;;;;5075171;28;20084;-72
2021/07/07 02:51:36;;;;;;;1.73;1.38;;;15.60;78.80;;;;;;5075203;28;20480;-72
2021/07/07 02:54:03;;;;;;;2.42;1.55;;;15.60;78.80;;;;;;5093332;28;20031;-72
2021/07/07 02:56:28;;;;;;;3.63;1.65;;;15.60;78.80;;;;;;5075170;28;20039;-72
2021/07/07 02:58:54;;;;;;;4.10;1.80;;;15.60;78.90;;;;;;5093390;28;20028;-73
2021/07/07 03:01:21;;;;;;;2.72;1.65;;;15.60;78.90;;;;;;5075014;28;20028;-73
2021/07/07 03:03:47;;;;;;;2.03;1.77;;;15.60;79.00;;;;;;5075048;28;20039;-73
2021/07/07 03:06:13;;;;;;;3.42;1.77;;;15.60;79.00;;;;;;5075023;28;20024;-73
2021/07/07 03:08:43;;;;;;;2.28;1.85;;;15.60;79.10;;;;;;5074987;28;20039;-73
2021/07/07 03:11:09;;;;;;;2.63;1.85;;;15.60;79.10;;;;;;5075221;28;20032;-73
2021/07/07 03:13:35;;;;;;;1.83;1.60;;;15.60;79.10;;;;;;5096533;28;20024;-73
2021/07/07 03:16:03;;;;;;;2.28;1.60;;;15.60;79.10;;;;;;5081555;28;20034;-73
2021/07/07 03:18:29;;;;;;;4.00;1.60;;;15.60;79.10;;;;;;5081330;28;20271;-73
2021/07/07 03:20:55;;;;;;;2.45;1.30;;;15.60;79.00;;;;;;5099864;28;20028;-73
2021/07/07 03:23:22;;;;;;;1.67;1.50;;;15.70;79.00;;;;;;5081612;28;20498;-72
2021/07/07 03:25:52;;;;;;;2.55;1.60;;;15.70;78.90;;;;;;5081635;28;20392;-72
2021/07/07 03:28:20;;;;;;;2.40;1.50;;;15.70;78.90;;;;;;5099778;28;20380;-71
2021/07/07 03:30:46;;;;;;;2.13;1.70;;;15.70;78.90;;;;;;5081494;28;20119;-72
2021/07/07 03:33:12;;;;;;;2.88;1.70;;;15.70;79.00;;;;;;5081513;28;20418;-72
2021/07/07 03:35:38;;;;;;;2.33;1.67;;;15.70;79.00;;;;;;5081558;28;20024;-72
2021/07/07 03:38:04;;;;;;;2.53;1.63;;;15.60;79.00;;;;;;5081266;28;20062;-72
2021/07/07 03:40:32;;;;;;;2.88;1.52;;;15.60;79.10;;;;;;5081359;28;20035;-72
2021/07/07 03:42:58;;;;;;;3.88;1.80;;;15.60;79.10;;;;;;5081454;28;20028;-72
2021/07/07 03:45:24;;;;;;;3.15;2.00;;;15.60;79.20;;;;;;5081311;28;20488;-73
2021/07/07 03:47:50;;;;;;;1.50;1.40;;;15.60;79.20;;;;;;5099538;28;20024;-73
2021/07/07 03:50:17;;;;;;;1.52;1.30;;;15.70;79.30;;;;;;5099469;28;20081;-73
2021/07/07 03:52:44;;;;;;;4.30;1.98;;;15.70;79.20;;;;;;5099445;28;20422;-72
2021/07/07 03:55:15;;;;;;;2.45;1.70;;;15.70;79.10;;;;;;5081231;28;20074;-73
2021/07/07 03:57:41;;;;;;;2.13;1.50;;;15.90;79.20;;;;;;5081245;28;20031;-71
2021/07/07 04:00:11;;;;;;;1.90;1.80;;;15.90;79.00;;;;;;5099478;28;20039;-72
2021/07/07 04:02:36;;;;;;;3.65;1.65;;;16.00;79.00;;;;;;5081084;28;20020;-73
2021/07/07 04:05:03;;;;;;;2.75;1.75;;;16.00;78.90;;;;;;5081149;28;20035;-72
2021/07/07 04:07:29;;;;;;;2.53;1.77;;;16.00;78.90;;;;;;5099374;28;20036;-73
2021/07/07 04:09:54;;;;;;;1.88;1.70;;;16.00;78.90;;;;;;5081464;28;20137;-72
2021/07/07 04:12:20;;;;;;;2.08;1.60;;;16.10;79.00;;;;;;5099520;28;20028;-73
2021/07/07 04:14:46;;;;;;;2.30;2.10;;;16.10;79.00;;;;;;5099254;28;20027;-73
2021/07/07 04:17:11;;;;;;;3.10;1.75;;;16.00;78.90;;;;;;5080944;28;20035;-73
2021/07/07 04:19:37;;;;;;;2.97;1.60;;;16.00;78.90;;;;;;5081066;28;20028;-74
2021/07/07 04:22:03;;;;;;;3.97;1.70;;;16.00;79.00;;;;;;5081320;28;20483;-73
2021/07/07 04:24:29;;;;;;;3.35;1.83;;;16.00;79.00;;;;;;5097561;28;20048;-74
2021/07/07 04:26:54;;;;;;;2.53;1.60;;;16.00;79.10;;;;;;5096110;28;20035;-72
2021/07/07 04:29:20;;;;;;;2.42;1.50;;;16.00;79.20;;;;;;5095898;28;20115;-74
2021/07/07 04:31:46;;;;;;;2.65;1.80;;;16.00;79.20;;;;;;5095923;28;20063;-73
2021/07/07 04:34:12;;;;;;;2.28;1.60;;;16.00;79.20;;;;;;5077750;28;20027;-73
2021/07/07 04:36:38;;;;;;;2.28;1.85;;;16.00;79.20;;;;;;5095853;28;20425;-74
2021/07/07 04:39:08;;;;;;;2.97;1.90;;;16.00;79.20;;;;;;5077601;28;20274;-72
2021/07/07 04:41:34;;;;;;;2.20;1.90;;;16.00;79.20;;;;;;5077540;28;20041;-73
2021/07/07 04:43:59;;;;;;;3.38;1.70;;;16.00;79.20;;;;;;5095990;28;20035;-72
2021/07/07 04:46:25;;;;;;;2.13;1.80;;;16.10;79.30;;;;;;5095636;28;20028;-72
2021/07/07 04:48:51;;;;;;;3.53;1.77;;;16.10;79.20;;;;;;5077293;28;20052;-72
2021/07/07 04:51:16;;;;;;;3.25;1.75;;;16.10;79.20;;;;;;5095562;28;20020;-73
2021/07/07 04:53:42;;;;;;;2.67;1.80;;;16.10;79.20;;;;;;5095448;28;20103;-74
2021/07/07 04:56:08;;;;;;;2.22;1.70;;;16.10;79.10;;;;;;5077241;28;20056;-73
2021/07/07 04:58:36;;;;;;;2.42;1.77;;;16.20;79.10;;;;;;5077379;28;20364;-72
2021/07/07 05:01:01;;;;;;;4.07;1.90;;;16.20;79.00;;;;;;5095314;28;20024;-73
2021/07/07 05:03:27;;;;;;;2.22;1.60;;;16.20;79.00;;;;;;5095319;28;20027;-73
2021/07/07 05:05:53;;;;;;;4.10;2.42;;;16.30;78.90;;;;;;5077044;28;20035;-73
2021/07/07 05:08:18;;;;;;;2.58;1.80;;;16.40;78.90;;;;;;5095125;28;20024;-72
2021/07/07 05:10:46;;;;;;;3.00;1.70;;;16.40;78.70;;;;;;5092116;28;20033;-73
2021/07/07 05:13:12;;;;;;;4.82;1.70;;;16.50;78.60;;;;;;5076991;28;20107;-72
2021/07/07 05:15:38;;;;;;;2.90;1.75;;;16.60;78.50;;;;;;5076816;28;20024;-73
2021/07/07 05:18:06;;;;;;;3.60;1.50;;;16.70;78.50;;;;;;5076809;28;20048;-73
2021/07/07 05:20:32;;;;;;;1.75;1.45;;;16.70;78.30;;;;;;5094969;28;20020;-72
2021/07/07 05:22:58;;;;;;;3.05;1.60;;;16.80;78.20;;;;;;5077085;28;20031;-72
2021/07/07 05:25:23;;;;;;;2.08;1.42;;;16.90;78.10;;;;;;5077103;28;20107;-72
2021/07/07 05:27:49;;;;;;;2.10;1.48;;;16.90;78.50;;;;;;5094871;28;20024;-72
2021/07/07 05:30:16;;;;;;;3.03;1.83;;;17.00;77.90;;;;;;5076537;28;20039;-72
2021/07/07 05:32:42;;;;;;;4.30;1.98;;;17.00;77.80;;;;;;5076541;28;20012;-72
2021/07/07 05:35:09;;;;;;;3.15;1.70;;;17.00;77.60;;;;;;5076566;28;20024;-72
2021/07/07 05:37:35;;;;;;;2.03;1.50;;;17.10;77.60;;;;;;5094701;28;20103;-72
2021/07/07 05:40:01;;;;;;;3.03;1.75;;;17.10;77.60;;;;;;5076450;28;20032;-72
2021/07/07 05:42:27;;;;;;;3.53;1.70;;;17.20;77.60;;;;;;5094479;28;20507;-72
2021/07/07 05:44:53;;;;;;;3.85;1.88;;;17.30;77.50;;;;;;5094557;28;20032;-73
2021/07/07 05:47:21;;;;;;;3.40;2.20;;;17.30;77.40;;;;;;5094630;28;20032;-72
2021/07/07 05:49:47;;;;;;;5.10;1.95;;;17.30;77.20;;;;;;5076415;28;20057;-72
2021/07/07 05:52:13;;;;;;;2.70;1.45;;;17.40;77.20;;;;;;5094329;28;20019;-73
2021/07/07 05:54:39;;;;;;;4.72;1.80;;;17.40;77.10;;;;;;5076454;28;20468;-73
2021/07/07 05:57:04;;;;;;;3.55;1.73;;;17.50;77.00;;;;;;5075947;28;20024;-73
2021/07/07 05:59:30;;;;;;;2.30;1.65;;;17.50;77.00;;;;;;5076045;28;20379;-73
2021/07/07 06:01:56;;;;;;;4.30;2.42;;;17.50;77.00;;;;;;5075915;28;20472;-73
2021/07/07 06:04:21;;;;;;;4.85;3.60;;;17.60;76.90;;;;;;5094107;28;20031;-72
2021/07/07 06:06:47;;;;;;;3.78;1.90;;;17.60;76.90;;;;;;5075939;28;20093;-72
2021/07/07 06:09:13;;;;;;;5.68;2.38;;;17.60;76.80;;;;;;5094039;28;20024;-78
2021/07/07 06:11:38;;;;;;;5.63;2.42;;;17.70;76.80;;;;;;5094129;28;20129;-79
2021/07/07 06:14:04;;;;;;;3.58;1.90;;;17.70;76.80;;;;;;5076174;28;20019;-78
2021/07/07 06:16:33;;;;;;;3.85;2.00;;;17.70;76.60;;;;;;5076239;28;20475;-80
2021/07/07 06:18:59;;;;;;;4.90;1.73;;;17.70;76.60;;;;;;5075897;28;20024;-79
2021/07/07 06:21:25;;;;;;;4.20;1.83;;;17.80;76.50;;;;;;5075702;28;20024;-77
2021/07/07 06:23:50;;;;;;;4.85;2.13;;;17.80;76.40;;;;;;5075941;28;20387;-80
2021/07/07 06:26:16;;;;;;;4.68;2.15;;;17.90;76.30;;;;;;5094357;28;20411;-80
2021/07/07 06:28:42;;;;;;;3.28;1.80;;;18.00;76.30;;;;;;5075692;28;20120;-78
2021/07/07 06:31:08;;;;;;;4.45;1.90;;;18.10;76.20;;;;;;5075589;28;20107;-78
2021/07/07 06:33:33;;;;;;;3.30;1.85;;;18.10;76.00;;;;;;5075919;28;20016;-78
2021/07/07 06:39:21;;;;;;;3.42;2.08;;;18.30;75.80;;;;;;5093959;28;20152;-75
2021/07/07 06:41:47;;;;;;;5.00;1.90;;;18.30;75.70;;;;;;5093380;28;20024;-77
2021/07/07 06:44:15;;;;;;;4.05;2.17;;;18.30;75.60;;;;;;5075914;28;20024;-77
2021/07/07 06:46:41;;;;;;;3.00;1.98;;;18.40;75.50;;;;;;5075220;28;20081;-76
2021/07/07 06:49:07;;;;;;;3.40;1.73;;;18.40;75.40;;;;;;5074632;28;20122;-76
2021/07/07 06:51:32;;;;;;;5.28;2.00;;;18.50;75.40;;;;;;5093199;28;20476;-77
2021/07/07 06:53:58;;;;;;;4.85;2.10;;;18.50;75.30;;;;;;5075519;28;20024;-77
2021/07/07 06:56:23;;;;;;;3.13;2.17;;;18.60;75.30;;;;;;5093176;28;20422;-77
2021/07/07 06:58:49;;;;;;;6.60;2.28;;;18.60;75.30;;;;;;5072304;28;20085;-77
2021/07/07 07:01:15;;;;;;;2.90;1.85;;;18.60;75.10;;;;;;5093080;28;20067;-78
2021/07/07 07:03:40;;;;;;;5.13;2.10;;;18.70;75.00;;;;;;5093224;28;20028;-77
2021/07/07 07:06:06;;;;;;;3.92;1.70;;;18.80;74.90;;;;;;5075127;28;20097;-76
2021/07/07 07:08:32;;;;;;;3.47;1.70;;;18.80;74.70;;;;;;5075186;28;20122;-77
2021/07/07 07:10:58;;;;;;;3.70;1.90;;;18.90;74.60;;;;;;5075820;28;20024;-78
2021/07/07 07:13:24;;;;;;;3.78;2.08;;;18.90;74.50;;;;;;5075588;28;20360;-77
2021/07/07 07:15:49;;;;;;;5.15;2.05;;;18.90;74.50;;;;;;5075513;28;20426;-76
2021/07/07 07:21:44;;;;;;;3.65;2.00;;;19.00;74.50;;;;;;5093753;28;20119;-78
2021/07/07 07:24:10;;;;;;;3.17;1.83;;;18.90;74.40;;;;;;5075977;28;20364;-78
2021/07/07 07:26:36;;;;;;;3.97;1.90;;;18.90;74.40;;;;;;5075292;28;20510;-76
2021/07/07 07:29:07;;;;;;;3.17;1.65;;;19.00;74.30;;;;;;5075151;28;20032;-76
2021/07/07 07:31:33;;;;;;;2.88;1.67;;;19.00;74.20;;;;;;5075508;28;20545;-76
2021/07/07 07:33:59;;;;;;;4.32;1.95;;;19.00;74.10;;;;;;5075536;28;20016;-77
2021/07/07 07:36:26;;;;;;;5.55;2.10;;;19.10;74.00;;;;;;5075168;28;20552;-76
2021/07/07 07:38:59;;;;;;;3.72;1.67;;;19.20;73.70;;;;;;5093021;28;20052;-75
2021/07/07 07:41:31;;;;;;;3.17;2.00;;;19.20;73.60;;;;;;5075099;28;20032;-78
2021/07/07 07:43:57;;;;;;;3.58;1.75;;;19.30;73.10;;;;;;5093360;28;20103;-79
2021/07/07 07:46:27;;;;;;;4.53;1.80;;;19.30;73.00;;;;;;5075364;28;20059;-80
2021/07/07 07:48:54;;;;;;;4.18;1.63;;;19.30;72.90;;;;;;5072466;28;20127;-78
2021/07/07 07:51:20;;;;;;;3.53;1.70;;;19.40;72.90;;;;;;5093397;28;20016;-77
2021/07/07 07:53:46;;;;;;;7.78;1.80;;;19.40;72.60;;;;;;5093254;28;20046;-78
2021/07/07 07:56:12;;;;;;;3.65;1.80;;;19.40;72.30;;;;;;5075036;28;20445;-78
2021/07/07 07:58:38;;;;;;;2.80;1.58;;;19.50;72.20;;;;;;5093234;28;20027;-76
2021/07/07 08:01:03;;;;;;;3.85;1.80;;;19.60;72.20;;;;;;5077407;28;20043;-78
2021/07/07 08:03:29;;;;;;;4.45;1.80;;;19.60;72.00;;;;;;5096889;28;20055;-77
2021/07/07 08:05:54;;;;;;;2.70;1.65;;;19.70;71.80;;;;;;5078625;28;20398;-76
2021/07/07 08:11:43;;;;;;;3.78;1.88;;;19.80;71.60;;;;;;5097341;28;20058;-78
2021/07/07 08:14:09;;;;;;;5.22;1.95;;;19.80;71.40;;;;;;5078306;28;20024;-79
2021/07/07 08:16:35;;;;;;;3.78;1.90;;;19.90;71.30;;;;;;5077808;28;20053;-79
2021/07/07 08:19:01;;;;;;;5.75;1.60;;;19.90;71.30;;;;;;5078462;28;20060;-78
2021/07/07 08:21:30;;;;;;;4.10;1.58;;;19.90;71.10;;;;;;5078199;28;20028;-79
2021/07/07 08:27:18;;;;;;;4.32;1.67;;;20.00;70.80;;;;;;5096708;28;20383;-76
2021/07/07 08:29:44;;;;;;;3.30;1.58;;;20.10;70.50;;;;;;5078372;28;20036;-77
2021/07/07 08:35:46;;;;;;;3.08;1.48;;;20.20;70.00;;;;;;5098099;28;20039;-77
2021/07/07 08:38:12;;;;;;;5.13;1.73;;;20.20;69.60;;;;;;5079623;28;20020;-78
2021/07/07 08:44:07;;;;;;;5.88;1.50;;;20.30;69.30;;;;;;5097867;28;20073;-77
2021/07/07 08:46:36;;;;;;;3.33;1.60;;;20.30;69.10;;;;;;5077274;28;20040;-75
2021/07/07 08:49:06;;;;;;;4.43;1.80;;;20.30;69.00;;;;;;5078744;28;20055;-74
2021/07/07 08:51:32;;;;;;;2.75;1.48;;;20.40;69.00;;;;;;5077579;28;20025;-76
2021/07/07 08:53:59;;;;;;;4.97;1.63;;;20.40;68.80;;;;;;5077390;28;20036;-74
2021/07/07 08:56:28;;;;;;;3.60;1.30;;;20.40;68.70;;;;;;5095491;28;20028;-75
2021/07/07 08:58:54;;;;;;;2.50;1.25;;;20.40;68.40;;;;;;5095479;28;20476;-76
2021/07/07 09:01:27;;;;;;;4.65;1.52;;;20.40;68.20;;;;;;5077129;28;20031;-76
2021/07/07 09:03:55;;;;;;;2.70;1.40;;;20.40;67.90;;;;;;5077133;28;20135;-75
2021/07/07 09:06:26;;;;;;;5.20;1.70;;;20.40;67.90;;;;;;5077651;28;20035;-77
2021/07/07 09:12:46;;;;;;;3.70;1.20;;;20.70;67.20;;;;;;5095141;28;20067;-76
2021/07/07 09:15:17;;;;;;;2.33;1.20;;;20.80;67.10;;;;;;5076731;28;20036;-76
2021/07/07 09:17:45;;;;;;;1.83;1.17;;;20.90;67.10;;;;;;5077113;28;20036;-76
2021/07/07 09:20:26;;;;;;;2.05;1.10;;;21.00;66.80;;;;;;5076830;28;20043;-78
2021/07/07 09:23:25;;;;;;;2.85;1.40;;;21.10;66.40;;;;;;5076982;28;20499;-76
2021/07/07 09:29:13;;;;;;;3.50;1.23;;;21.50;65.10;;;;;;5094977;28;20055;-78
2021/07/07 09:31:42;;;;;;;5.43;1.42;;;21.60;64.90;;;;;;5076925;28;20028;-76
2021/07/07 09:34:19;;;;;;;2.70;1.27;;;21.70;64.50;;;;;;5094711;28;20021;-77
2021/07/07 09:36:53;;;;;;;2.85;1.38;;;21.70;64.10;;;;;;5076576;28;20028;-77
2021/07/07 09:39:20;;;;;;;2.78;1.30;;;21.70;64.00;;;;;;5076769;28;20036;-77
2021/07/07 09:45:12;;;;;;;5.25;1.30;;;21.90;63.80;;;;;;5094954;28;20070;-77
2021/07/07 09:47:48;;;;;;;3.17;1.50;;;22.00;63.70;;;;;;5094449;28;20101;-76
2021/07/07 09:50:18;;;;;;;3.25;1.33;;;22.10;63.10;;;;;;5076155;28;20028;-75
2021/07/07 09:52:44;;;;;;;4.63;1.50;;;22.20;63.00;;;;;;5075993;28;20024;-75
2021/07/07 09:55:15;;;;;;;4.63;1.60;;;22.20;62.60;;;;;;5094368;28;20538;-76
2021/07/07 09:58:34;;;;;;;2.53;1.45;;;22.30;62.10;;;;;;5094317;28;20471;-74
2021/07/07 10:01:05;;;;;;;2.83;1.17;;;22.40;61.80;;;;;;5075912;28;20487;-74
2021/07/07 10:07:10;;;;;;;2.22;1.30;;;22.40;61.20;;;;;;5094505;28;20031;-74
2021/07/07 10:09:42;;;;;;;2.65;1.38;;;22.40;61.20;;;;;;5094044;28;20035;-73
2021/07/07 10:12:08;;;;;;;2.70;1.23;;;22.50;61.10;;;;;;5075855;28;20024;-73
2021/07/07 10:14:46;;;;;;;3.30;1.33;;;22.50;61.00;;;;;;5093950;28;20039;-74
2021/07/07 10:17:15;;;;;;;4.05;1.58;;;22.60;60.80;;;;;;5075594;28;20032;-74
2021/07/07 10:19:50;;;;;;;3.72;1.38;;;22.50;60.40;;;;;;5093921;28;20076;-75
2021/07/07 10:22:16;;;;;;;6.80;1.48;;;22.50;60.00;;;;;;5093499;28;20533;-73
2021/07/07 10:24:55;;;;;;;2.60;1.30;;;22.50;60.10;;;;;;5075189;28;20036;-74
2021/07/07 10:27:24;;;;;;;2.78;1.20;;;22.60;60.00;;;;;;5075022;28;20032;-73
2021/07/07 10:29:52;;;;;;;1.90;1.23;;;22.80;60.00;;;;;;5075122;28;20039;-74
2021/07/07 10:32:23;;;;;;;3.25;1.55;;;22.90;59.40;;;;;;5075436;28;20027;-74
2021/07/07 10:34:49;;;;;;;3.75;1.30;;;23.10;59.00;;;;;;5075393;28;20067;-73
2021/07/07 10:37:22;;;;;;;3.53;1.27;;;23.10;58.70;;;;;;5093743;28;20430;-73
2021/07/07 10:39:48;;;;;;;2.90;1.10;;;23.10;58.50;;;;;;5075445;28;20081;-76
2021/07/07 10:42:13;;;;;;;2.67;1.20;;;23.10;58.70;;;;;;5094206;28;20043;-74
2021/07/07 10:44:43;;;;;;;2.55;1.17;;;23.20;58.40;;;;;;5076117;28;20472;-74
2021/07/07 10:47:13;;;;;;;3.65;1.35;;;23.10;58.10;;;;;;5075956;28;20040;-74
2021/07/07 10:50:09;;;;;;;2.13;1.40;;;23.10;57.90;;;;;;5094632;28;20110;-74
2021/07/07 10:52:40;;;;;;;3.03;1.50;;;23.10;58.00;;;;;;5060826;28;20461;-74
2021/07/07 10:55:10;;;;;;;5.50;1.15;;;23.10;57.70;;;;;;5075580;28;20043;-75
2021/07/07 10:57:36;;;;;;;3.75;1.58;;;23.10;57.80;;;;;;5075899;28;20082;-75
2021/07/07 11:00:38;;;;;;;3.10;1.20;;;23.20;57.60;;;;;;5076898;28;20034;-82
2021/07/07 11:03:40;;;;;;;2.50;1.30;;;23.40;57.00;;;;;;5095441;28;20043;-81
2021/07/07 11:09:52;;;;;;;2.47;1.30;;;23.40;56.90;;;;;;4993553;28;20069;-81
2021/07/07 11:12:20;;;;;;;3.38;1.30;;;23.40;57.10;;;;;;4975900;28;20038;-81
2021/07/07 11:15:02;;;;;;;2.75;1.30;;;23.40;57.20;;;;;;5054142;28;20032;-81
2021/07/07 11:21:06;;;;;;;3.45;1.20;;;23.30;57.30;;;;;;5074882;28;20082;-82
2021/07/07 11:23:32;;;;;;;4.05;1.30;;;23.20;57.70;;;;;;5074066;28;20029;-74
2021/07/07 11:25:58;;;;;;;2.42;1.23;;;23.10;57.80;;;;;;5071735;28;20059;-73
2021/07/07 11:28:23;;;;;;;3.42;1.50;;;23.10;57.90;;;;;;5072805;28;20032;-75
2021/07/07 11:30:50;;;;;;;2.35;1.10;;;23.10;57.90;;;;;;5072646;28;20066;-73
2021/07/07 11:33:16;;;;;;;2.45;1.30;;;23.10;57.90;;;;;;5054798;28;20025;-75
2021/07/07 11:35:43;;;;;;;1.48;1.20;;;23.30;57.80;;;;;;5076365;28;20476;-74
2021/07/07 11:38:12;;;;;;;4.15;1.50;;;23.40;57.50;;;;;;5076860;28;20024;-74
2021/07/07 11:40:42;;;;;;;2.42;1.23;;;23.50;57.30;;;;;;5059093;28;20141;-75
2021/07/07 11:43:14;;;;;;;2.08;1.23;;;23.60;57.20;;;;;;5076394;28;20029;-74
2021/07/07 11:45:43;;;;;;;1.92;1.05;;;23.70;57.00;;;;;;5076510;28;20025;-74
2021/07/07 11:48:31;;;;;;;1.42;0.90;;;23.80;56.40;;;;;;5058431;28;20029;-73
2021/07/07 11:51:05;;;;;;;2.80;1.20;;;23.90;56.10;;;;;;5058398;28;20035;-74
2021/07/07 11:53:37;;;;;;;3.38;1.35;;;24.00;55.30;;;;;;5076684;28;20032;-74
2021/07/07 11:59:26;;;;;;;3.80;1.33;;;24.10;55.00;;;;;;5076843;28;20051;-75
2021/07/07 12:01:58;;;;;;;3.03;1.30;;;24.20;55.00;;;;;;5076425;28;20426;-73
2021/07/07 12:04:25;;;;;;;1.85;1.17;;;24.20;54.90;;;;;;5058403;28;20391;-74
2021/07/07 12:06:56;;;;;;;3.72;1.40;;;24.30;55.00;;;;;;5058221;28;20017;-73
2021/07/07 12:09:23;;;;;;;1.75;1.20;;;24.30;55.00;;;;;;5076967;28;20115;-75
2021/07/07 12:12:05;;;;;;;2.47;1.20;;;24.40;55.10;;;;;;5076184;28;20046;-75
2021/07/07 12:14:36;;;;;;;2.20;1.30;;;24.40;54.90;;;;;;5058377;28;20020;-76
2021/07/07 12:17:04;;;;;;;1.83;1.33;;;24.40;54.80;;;;;;5076386;28;20016;-74
2021/07/07 12:19:31;;;;;;;4.80;1.40;;;24.50;54.60;;;;;;5076289;28;20041;-75
2021/07/07 12:22:02;;;;;;;2.35;1.25;;;24.50;54.20;;;;;;5058602;28;20569;-73
2021/07/07 12:24:39;;;;;;;3.45;1.17;;;24.70;53.80;;;;;;5058256;28;20028;-73
2021/07/07 12:27:11;;;;;;;1.40;1.02;;;24.80;53.10;;;;;;5076032;28;20028;-73
2021/07/07 12:29:41;;;;;;;1.60;1.00;;;24.90;52.70;;;;;;5057837;28;20032;-74
2021/07/07 12:32:08;;;;;;;2.38;1.00;;;25.00;52.60;;;;;;5057565;28;20020;-73
2021/07/07 12:34:36;;;;;;;2.10;0.90;;;25.00;52.50;;;;;;5057684;28;20423;-73
2021/07/07 12:37:10;;;;;;;2.00;1.10;;;24.90;52.60;;;;;;5076080;28;20032;-74
2021/07/07 12:39:41;;;;;;;2.42;1.00;;;24.90;52.30;;;;;;5057831;28;20049;-74
2021/07/07 12:42:18;;;;;;;2.42;1.23;;;24.90;51.90;;;;;;5057997;28;20406;-74
2021/07/07 12:44:44;;;;;;;1.25;0.90;;;24.90;51.70;;;;;;5057565;28;20032;-75
2021/07/07 12:47:14;;;;;;;1.83;1.08;;;25.00;51.40;;;;;;5056638;28;20388;-74
2021/07/07 12:50:00;;;;;;;2.58;1.13;;;25.10;50.90;;;;;;5057442;28;20484;-74
2021/07/07 12:52:28;;;;;;;1.80;1.05;;;25.10;51.10;;;;;;5056804;28;20500;-73
2021/07/07 12:55:03;;;;;;;3.53;1.02;;;25.10;51.00;;;;;;5057792;28;20024;-73
2021/07/07 12:57:41;;;;;;;1.00;0.90;;;25.00;50.80;;;;;;5057696;28;20032;-74
2021/07/07 13:00:09;;;;;;;2.05;1.13;;;25.00;51.10;;;;;;5075346;28;20032;-74
2021/07/07 13:02:52;;;;;;;1.27;1.00;;;25.00;51.50;;;;;;5056860;28;20029;-75
2021/07/07 13:05:19;;;;;;;3.50;1.52;;;25.10;51.80;;;;;;5057433;28;20033;-74
2021/07/07 13:07:44;;;;;;;1.92;1.20;;;25.10;51.80;;;;;;5057066;28;20028;-73
2021/07/07 13:10:10;;;;;;;3.90;1.50;;;25.10;51.70;;;;;;5057059;28;20032;-74
2021/07/07 13:12:36;;;;;;;1.45;1.05;;;25.20;51.70;;;;;;5056982;28;20020;-73
2021/07/07 13:15:02;;;;;;;2.53;1.17;;;25.20;51.60;;;;;;5056950;28;20131;-73
2021/07/07 13:17:28;;;;;;;2.00;1.02;;;25.30;51.50;;;;;;5074965;28;20032;-74
2021/07/07 13:19:58;;;;;;;1.92;1.08;;;25.40;51.50;;;;;;5074778;28;20020;-74
2021/07/07 13:22:24;;;;;;;1.90;1.20;;;25.40;51.20;;;;;;5056623;28;20090;-74
2021/07/07 13:24:50;;;;;;;2.95;1.10;;;25.40;51.10;;;;;;5056713;28;20400;-74
2021/07/07 13:27:20;;;;;;;2.55;1.05;;;25.40;51.10;;;;;;5056697;28;20028;-75
2021/07/07 13:29:46;;;;;;;1.30;1.00;;;25.50;51.00;;;;;;5056288;28;20033;-73
2021/07/07 13:32:19;;;;;;;2.97;1.25;;;25.60;50.80;;;;;;5056633;28;20058;-75
2021/07/07 13:35:02;;;;;;;2.55;1.10;;;25.80;50.20;;;;;;5056988;28;20119;-74
2021/07/07 13:37:35;;;;;;;2.10;1.30;;;25.90;49.80;;;;;;5056551;28;20029;-75